createdAt,value
2018-05-13T00:02:12.605Z,5.00
2018-05-13T00:04:39.052Z,4.20
2018-05-13T00:07:05.459Z,5.30
2018-05-13T00:09:31.910Z,4.70
2018-05-13T00:11:58.297Z,5.70
2018-05-13T00:14:24.711Z,4.57
2018-05-13T00:16:51.876Z,5.37
2018-05-13T00:19:18.294Z,4.87
2018-05-13T00:21:45.437Z,4.83
2018-05-13T00:24:12.592Z,5.30
2018-05-13T00:26:39.755Z,4.57
2018-05-13T00:29:06.187Z,5.07
2018-05-13T00:31:32.611Z,5.00
2018-05-13T00:33:58.971Z,6.23
2018-05-13T00:36:25.439Z,6.37
2018-05-13T00:38:51.863Z,6.80
2018-05-13T00:41:18.302Z,7.63
2018-05-13T00:43:44.734Z,6.57
2018-05-13T00:46:11.097Z,6.57
2018-05-13T00:48:37.485Z,6.87
2018-05-13T00:51:03.906Z,6.23
2018-05-13T00:53:30.334Z,6.87
2018-05-13T00:55:56.893Z,7.00
2018-05-13T00:58:23.307Z,7.67
2018-05-13T01:00:49.717Z,6.50
2018-05-13T01:03:16.119Z,6.10
2018-05-13T01:05:42.551Z,5.53
2018-05-13T01:08:10.064Z,6.40
2018-05-13T01:10:36.439Z,5.53
2018-05-13T01:13:02.905Z,7.10
2018-05-13T01:15:29.614Z,6.50
2018-05-13T01:17:56.051Z,6.50
2018-05-13T01:20:22.418Z,5.47
2018-05-13T01:22:48.799Z,6.20
2018-05-13T01:25:15.199Z,5.73
2018-05-13T01:27:41.653Z,5.60
2018-05-13T01:30:08.907Z,6.00
2018-05-13T01:32:35.665Z,6.40
2018-05-13T01:35:02.122Z,5.67
2018-05-13T01:37:28.536Z,5.97
2018-05-13T01:39:54.927Z,6.03
2018-05-13T01:42:22.071Z,5.80
2018-05-13T01:44:48.446Z,6.10
2018-05-13T01:47:14.796Z,6.40
2018-05-13T01:49:41.128Z,5.40
2018-05-13T01:52:07.473Z,6.33
2018-05-13T01:54:33.863Z,6.10
2018-05-13T01:57:00.315Z,6.20
2018-05-13T01:59:26.689Z,6.33
2018-05-13T02:01:53.066Z,6.93
2018-05-13T02:04:19.387Z,5.60
2018-05-13T02:06:46.517Z,7.00
2018-05-13T02:09:13.662Z,7.07
2018-05-13T02:11:40.757Z,6.87
2018-05-13T02:14:07.138Z,7.13
2018-05-13T02:16:39.201Z,8.10
2018-05-13T02:19:05.585Z,9.53
2018-05-13T02:21:36.589Z,9.25
2018-05-13T02:24:03.236Z,8.63
2018-05-13T02:26:29.573Z,9.13
2018-05-13T02:28:55.931Z,8.18
2018-05-13T02:31:22.283Z,7.12
2018-05-13T02:33:48.633Z,6.90
2018-05-13T02:36:15.026Z,7.80
2018-05-13T02:38:41.409Z,7.50
2018-05-13T02:41:07.747Z,6.55
2018-05-13T02:43:34.130Z,6.75
2018-05-13T02:46:00.487Z,6.35
2018-05-13T02:48:27.654Z,6.60
2018-05-13T02:50:54.064Z,6.60
2018-05-13T02:53:21.165Z,6.35
2018-05-13T02:55:47.553Z,6.80
2018-05-13T02:58:13.884Z,7.62
2018-05-13T03:00:40.377Z,7.30
2018-05-13T03:03:06.920Z,7.62
2018-05-13T03:05:33.236Z,6.60
2018-05-13T03:07:59.602Z,7.50
2018-05-13T03:10:26.686Z,7.28
2018-05-13T03:12:53.035Z,6.87
2018-05-13T03:15:19.524Z,6.50
2018-05-13T03:17:45.856Z,6.65
2018-05-13T03:20:12.230Z,6.47
2018-05-13T03:22:38.629Z,5.90
2018-05-13T03:25:05.006Z,6.97
2018-05-13T03:27:31.361Z,6.20
2018-05-13T03:29:57.695Z,5.32
2018-05-13T03:32:24.783Z,6.07
2018-05-13T03:34:51.222Z,5.80
2018-05-13T03:37:17.550Z,5.70
2018-05-13T03:39:44.034Z,5.40
2018-05-13T03:42:11.122Z,6.03
2018-05-13T03:44:37.457Z,5.35
2018-05-13T03:47:03.801Z,5.00
2018-05-13T03:49:30.173Z,4.90
2018-05-13T03:51:57.369Z,5.10
2018-05-13T03:54:23.808Z,5.00
2018-05-13T03:56:50.945Z,4.70
2018-05-13T03:59:17.336Z,4.57
2018-05-13T04:01:44.618Z,5.35
2018-05-13T04:04:11.019Z,4.68
2018-05-13T04:06:37.375Z,4.43
2018-05-13T04:09:22.174Z,4.93
2018-05-13T04:12:07.031Z,5.00
2018-05-13T04:14:52.558Z,5.15
2018-05-13T04:17:18.887Z,5.03
2018-05-13T04:19:45.270Z,4.15
2018-05-13T04:22:11.633Z,4.43
2018-05-13T04:24:38.738Z,4.62
2018-05-13T04:27:05.090Z,4.70
2018-05-13T04:29:31.415Z,4.65
2018-05-13T04:31:57.749Z,4.70
2018-05-13T04:34:24.229Z,4.60
2018-05-13T04:36:50.943Z,4.12
2018-05-13T04:39:18.042Z,4.55
2018-05-13T04:41:44.403Z,4.20
2018-05-13T04:44:10.754Z,5.30
2018-05-13T04:46:37.852Z,4.28
2018-05-13T04:49:04.196Z,4.47
2018-05-13T04:51:30.529Z,4.65
2018-05-13T04:53:56.903Z,4.47
2018-05-13T04:56:23.271Z,4.45
2018-05-13T04:58:49.709Z,4.18
2018-05-13T05:01:16.138Z,4.60
2018-05-13T05:03:42.503Z,5.07
2018-05-13T05:06:08.855Z,4.37
2018-05-13T05:08:35.327Z,6.10
2018-05-13T05:11:01.767Z,7.00
2018-05-13T05:13:28.156Z,6.53
2018-05-13T05:15:54.686Z,6.75
2018-05-13T05:18:21.070Z,7.37
2018-05-13T05:20:47.450Z,7.78
2018-05-13T05:23:13.815Z,8.75
2018-05-13T05:25:40.244Z,8.13
2018-05-13T05:28:06.582Z,8.48
2018-05-13T05:30:33.021Z,8.95
2018-05-13T05:32:59.421Z,9.20
2018-05-13T05:35:25.771Z,10.07
2018-05-13T05:37:52.223Z,10.82
2018-05-13T05:40:18.563Z,11.53
2018-05-13T05:42:45.045Z,12.57
2018-05-13T05:45:11.391Z,12.60
2018-05-13T05:47:37.804Z,11.70
2018-05-13T05:50:04.129Z,13.27
2018-05-13T05:52:30.621Z,14.53
2018-05-13T05:54:57.801Z,16.27
2018-05-13T05:57:24.167Z,18.67
2018-05-13T05:59:50.642Z,15.38
2018-05-13T06:02:17.122Z,16.97
2018-05-13T06:04:43.461Z,16.90
2018-05-13T06:07:09.798Z,15.93
2018-05-13T06:09:36.241Z,18.30
2018-05-13T06:12:02.576Z,15.97
2018-05-13T06:14:28.914Z,18.77
2018-05-13T06:16:55.295Z,15.80
2018-05-13T06:19:21.663Z,18.53
2018-05-13T06:21:47.989Z,18.60
2018-05-13T06:24:14.321Z,18.00
2018-05-13T06:26:40.660Z,19.60
2018-05-13T06:29:07.014Z,17.67
2018-05-13T06:31:33.352Z,17.33
2018-05-13T06:33:59.646Z,16.93
2018-05-13T06:36:26.397Z,17.83
2018-05-13T06:38:52.868Z,18.97
2018-05-13T06:41:20.002Z,16.23
2018-05-13T06:43:47.106Z,13.50
2018-05-13T06:46:13.461Z,13.20
2018-05-13T06:48:39.879Z,14.23
2018-05-13T06:51:06.378Z,13.70
2018-05-13T06:53:32.542Z,13.40
2018-05-13T06:55:58.888Z,13.93
2018-05-13T06:58:25.270Z,14.37
2018-05-13T07:00:51.662Z,15.40
2018-05-13T07:03:18.757Z,14.77
2018-05-13T07:05:45.124Z,15.03
2018-05-13T07:08:11.512Z,13.83
2018-05-13T07:10:37.922Z,14.47
2018-05-13T07:13:04.470Z,13.20
2018-05-13T07:15:30.846Z,13.50
2018-05-13T07:17:57.242Z,13.27
2018-05-13T07:20:23.629Z,14.07
2018-05-13T07:22:50.809Z,13.03
2018-05-13T07:25:17.673Z,13.97
2018-05-13T07:27:44.019Z,14.17
2018-05-13T07:30:10.379Z,13.70
2018-05-13T07:32:37.506Z,13.30
2018-05-13T07:35:03.952Z,13.70
2018-05-13T07:37:31.928Z,12.20
2018-05-13T07:39:59.042Z,14.83
2018-05-13T07:42:25.366Z,14.87
2018-05-13T07:44:51.734Z,13.77
2018-05-13T07:47:18.192Z,14.67
2018-05-13T07:49:44.612Z,13.63
2018-05-13T07:52:11.759Z,12.20
2018-05-13T07:54:38.890Z,12.40
2018-05-13T07:57:05.252Z,11.43
2018-05-13T07:59:31.620Z,11.10
2018-05-13T08:01:58.010Z,11.50
2018-05-13T08:04:24.427Z,12.60
2018-05-13T08:06:51.528Z,10.97
2018-05-13T08:09:17.954Z,10.73
2018-05-13T08:11:44.463Z,11.30
2018-05-13T08:14:10.959Z,11.17
2018-05-13T08:16:37.327Z,12.13
2018-05-13T08:19:03.652Z,10.70
2018-05-13T08:21:29.951Z,10.80
2018-05-13T08:23:56.400Z,11.77
2018-05-13T08:26:23.481Z,11.87
2018-05-13T08:28:49.862Z,12.00
2018-05-13T08:31:16.198Z,13.00
2018-05-13T08:33:43.287Z,12.00
2018-05-13T08:36:10.166Z,10.90
2018-05-13T08:38:36.503Z,12.37
2018-05-13T08:41:02.894Z,11.97
2018-05-13T08:43:29.284Z,11.40
2018-05-13T08:45:56.398Z,10.60
2018-05-13T08:48:22.789Z,11.50
2018-05-13T08:50:49.165Z,10.70
2018-05-13T08:53:15.536Z,11.80
2018-05-13T08:55:41.970Z,11.07
2018-05-13T08:58:08.340Z,10.63
2018-05-13T09:00:34.678Z,10.43
2018-05-13T09:03:01.010Z,10.50
2018-05-13T09:05:27.413Z,10.50
2018-05-13T09:07:54.011Z,11.47
2018-05-13T09:10:20.457Z,11.57
2018-05-13T09:12:46.778Z,9.90
2018-05-13T09:15:13.657Z,10.07
2018-05-13T09:17:40.023Z,10.37
2018-05-13T09:20:06.454Z,11.77
2018-05-13T09:22:32.760Z,10.50
2018-05-13T09:24:59.141Z,10.40
2018-05-13T09:27:26.244Z,10.60
2018-05-13T09:29:52.658Z,10.00
2018-05-13T09:32:19.031Z,10.60
2018-05-13T09:34:45.418Z,11.27
2018-05-13T09:37:11.977Z,10.60
2018-05-13T09:39:38.356Z,11.07
2018-05-13T09:42:04.659Z,10.47
2018-05-13T09:44:31.010Z,9.90
2018-05-13T09:46:57.361Z,11.27
2018-05-13T09:49:23.720Z,10.67
2018-05-13T09:51:50.094Z,9.67
2018-05-13T09:54:17.359Z,10.03
2018-05-13T09:56:43.712Z,9.77
2018-05-13T09:59:10.153Z,10.80
2018-05-13T10:01:36.502Z,10.10
2018-05-13T10:04:07.034Z,10.30
2018-05-13T10:06:33.394Z,11.10
2018-05-13T10:09:00.531Z,9.67
2018-05-13T10:11:26.968Z,10.27
2018-05-13T10:13:54.071Z,10.60
2018-05-13T10:16:20.495Z,10.27
2018-05-13T10:18:47.033Z,10.40
2018-05-13T10:21:13.922Z,10.90
2018-05-13T10:23:40.249Z,10.27
2018-05-13T10:26:06.787Z,10.60
2018-05-13T10:28:33.149Z,11.10
2018-05-13T10:30:59.536Z,10.03
2018-05-13T10:33:25.911Z,10.93
2018-05-13T10:35:52.246Z,10.90
2018-05-13T10:38:18.697Z,10.63
2018-05-13T10:40:44.998Z,11.23
2018-05-13T10:43:11.401Z,11.20
2018-05-13T10:45:37.813Z,11.20
2018-05-13T10:48:04.296Z,11.93
2018-05-13T10:50:30.713Z,10.70
2018-05-13T10:52:57.843Z,11.80
2018-05-13T10:55:24.233Z,11.50
2018-05-13T10:57:50.659Z,11.40
2018-05-13T11:00:16.987Z,10.70
2018-05-13T11:02:43.426Z,12.17
2018-05-13T11:05:10.701Z,11.70
2018-05-13T11:07:37.102Z,10.50
2018-05-13T11:10:03.546Z,11.93
2018-05-13T11:12:29.959Z,10.87
2018-05-13T11:14:56.371Z,12.00
2018-05-13T11:17:23.565Z,10.37
2018-05-13T11:19:49.950Z,11.47
2018-05-13T11:22:16.254Z,9.67
2018-05-13T11:24:42.619Z,9.80
2018-05-13T11:27:09.099Z,10.37
2018-05-13T11:29:35.525Z,9.50
2018-05-13T11:32:02.195Z,9.17
2018-05-13T11:34:28.605Z,9.07
2018-05-13T11:36:55.006Z,8.57
2018-05-13T11:39:21.392Z,8.27
2018-05-13T11:41:48.686Z,7.57
2018-05-13T11:44:15.159Z,8.37
2018-05-13T11:46:41.595Z,8.33
2018-05-13T11:49:07.963Z,8.87
2018-05-13T11:51:34.404Z,9.87
2018-05-13T11:54:00.888Z,9.60
2018-05-13T11:56:27.800Z,8.97
2018-05-13T11:58:54.229Z,9.67
2018-05-13T12:01:20.576Z,8.67
2018-05-13T12:03:49.483Z,9.30
2018-05-13T12:06:15.942Z,9.60
2018-05-13T12:08:47.434Z,8.73
2018-05-13T12:11:13.870Z,10.57
2018-05-13T12:13:40.265Z,10.80
2018-05-13T12:16:10.933Z,12.93
2018-05-13T12:18:37.427Z,12.50
2018-05-13T12:21:03.813Z,11.43
2018-05-13T12:23:30.724Z,12.30
2018-05-13T12:25:57.050Z,12.80
2018-05-13T12:28:24.850Z,12.80
2018-05-13T12:30:51.251Z,12.40
2018-05-13T12:33:17.712Z,13.13
2018-05-13T12:35:44.394Z,13.30
2018-05-13T12:38:10.780Z,12.37
2018-05-13T12:40:37.286Z,12.33
2018-05-13T12:43:03.670Z,13.57
2018-05-13T12:45:30.944Z,13.47
2018-05-13T12:47:58.029Z,14.13
2018-05-13T12:50:24.405Z,12.47
2018-05-13T12:52:50.882Z,12.33
2018-05-13T12:55:17.262Z,13.90
2018-05-13T12:57:44.424Z,11.80
2018-05-13T13:00:11.265Z,14.13
2018-05-13T13:02:37.636Z,14.17
2018-05-13T13:05:03.998Z,13.60
2018-05-13T13:07:30.391Z,12.77
2018-05-13T13:09:56.769Z,13.50
2018-05-13T13:12:23.133Z,11.20
2018-05-13T13:14:49.550Z,12.50
2018-05-13T13:17:15.877Z,12.03
2018-05-13T13:19:42.238Z,11.73
2018-05-13T13:22:08.710Z,11.17
2018-05-13T13:24:35.750Z,11.83
2018-05-13T13:27:02.969Z,12.70
2018-05-13T13:29:29.418Z,12.07
2018-05-13T13:31:55.783Z,12.00
2018-05-13T13:34:26.143Z,11.47
2018-05-13T13:36:52.500Z,10.87
2018-05-13T13:39:19.055Z,11.30
2018-05-13T13:41:45.417Z,9.83
2018-05-13T13:44:12.626Z,10.33
2018-05-13T13:46:39.002Z,10.57
2018-05-13T13:49:05.440Z,12.13
2018-05-13T13:51:32.623Z,12.50
2018-05-13T13:53:59.081Z,12.93
2018-05-13T13:56:25.446Z,12.50
2018-05-13T13:58:52.563Z,11.70
2018-05-13T14:01:19.325Z,12.73
2018-05-13T14:03:46.396Z,14.00
2018-05-13T14:06:12.748Z,12.93
2018-05-13T14:08:39.277Z,13.20
2018-05-13T14:11:05.683Z,13.97
2018-05-13T14:13:32.019Z,13.27
2018-05-13T14:15:58.356Z,14.13
2018-05-13T14:18:24.792Z,11.90
2018-05-13T14:20:51.352Z,14.57
2018-05-13T14:23:18.813Z,13.37
2018-05-13T14:25:45.218Z,12.70
2018-05-13T14:28:11.684Z,13.73
2018-05-13T14:30:38.228Z,14.20
2018-05-13T14:33:04.666Z,12.43
2018-05-13T14:35:31.065Z,12.17
2018-05-13T14:37:57.565Z,12.93
2018-05-13T14:40:23.936Z,14.13
2018-05-13T14:42:50.342Z,12.73
2018-05-13T14:45:16.830Z,13.68
2018-05-13T14:47:43.860Z,12.23
2018-05-13T14:50:10.178Z,11.57
2018-05-13T14:52:36.657Z,12.88
2018-05-13T14:55:03.107Z,12.10
2018-05-13T14:57:29.518Z,12.43
2018-05-13T14:59:55.962Z,12.20
2018-05-13T15:02:22.420Z,11.55
2018-05-13T15:04:49.301Z,11.18
2018-05-13T15:07:28.967Z,11.60
2018-05-13T15:09:55.429Z,10.85
2018-05-13T15:12:22.729Z,11.60
2018-05-13T15:14:49.151Z,11.38
2018-05-13T15:17:15.525Z,11.15
2018-05-13T15:19:41.952Z,11.70
2018-05-13T15:22:08.488Z,10.70
2018-05-13T15:24:34.894Z,10.83
2018-05-13T15:27:02.128Z,10.73
2018-05-13T15:29:29.239Z,10.93
2018-05-13T15:31:55.684Z,11.90
2018-05-13T15:34:22.110Z,11.02
2018-05-13T15:36:48.501Z,11.60
2018-05-13T15:39:14.952Z,10.35
2018-05-13T15:41:41.361Z,11.40
2018-05-13T15:44:08.593Z,10.50
2018-05-13T15:46:34.991Z,10.60
2018-05-13T15:49:01.502Z,10.27
2018-05-13T15:51:27.757Z,12.20
2018-05-13T15:53:54.181Z,11.48
2018-05-13T15:56:20.691Z,11.57
2018-05-13T15:58:47.818Z,11.30
2018-05-13T16:01:14.908Z,10.90
2018-05-13T16:03:41.435Z,11.53
2018-05-13T16:06:07.861Z,11.80
2018-05-13T16:08:34.262Z,10.60
2018-05-13T16:11:00.795Z,11.80
2018-05-13T16:13:27.938Z,10.43
2018-05-13T16:15:55.128Z,11.17
2018-05-13T16:18:21.523Z,11.70
2018-05-13T16:20:49.326Z,10.83
2018-05-13T16:23:15.661Z,11.77
2018-05-13T16:25:42.146Z,12.00
2018-05-13T16:28:08.743Z,11.40
2018-05-13T16:30:35.277Z,11.63
2018-05-13T16:33:01.733Z,11.10
2018-05-13T16:35:28.119Z,11.23
2018-05-13T16:37:54.615Z,11.50
2018-05-13T16:40:21.712Z,11.33
2018-05-13T16:42:48.103Z,12.40
2018-05-13T16:45:14.492Z,11.70
2018-05-13T16:47:40.953Z,11.67
2018-05-13T16:50:08.027Z,11.80
2018-05-13T16:52:34.524Z,12.83
2018-05-13T16:55:00.929Z,12.27
2018-05-13T16:57:27.459Z,12.07
2018-05-13T16:59:53.910Z,11.38
2018-05-13T17:02:20.755Z,11.63
2018-05-13T17:04:47.134Z,12.50
2018-05-13T17:07:13.550Z,12.23
2018-05-13T17:09:40.963Z,11.27
2018-05-13T17:12:07.275Z,11.93
2018-05-13T17:14:33.814Z,11.80
2018-05-13T17:17:00.171Z,10.90
2018-05-13T17:19:26.667Z,13.32
2018-05-13T17:21:53.317Z,12.75
2018-05-13T17:24:20.026Z,10.70
2018-05-13T17:26:46.485Z,10.38
2018-05-13T17:29:12.988Z,11.02
2018-05-13T17:31:39.563Z,10.75
2018-05-13T17:34:06.319Z,11.30
2018-05-13T17:36:32.938Z,10.63
2018-05-13T17:38:59.431Z,12.90
2018-05-13T17:41:26.002Z,11.52
2018-05-13T17:43:52.553Z,11.65
2018-05-13T17:46:18.975Z,12.37
2018-05-13T17:48:46.499Z,12.10
2018-05-13T17:51:13.060Z,11.40
2018-05-13T17:53:39.686Z,11.65
2018-05-13T17:56:06.200Z,12.60
2018-05-13T17:58:33.669Z,12.75
2018-05-13T18:01:00.580Z,11.70
2018-05-13T18:03:27.116Z,12.90
2018-05-13T18:05:53.661Z,11.95
2018-05-13T18:08:20.567Z,10.45
2018-05-13T18:10:47.118Z,11.88
2018-05-13T18:13:13.610Z,12.10
2018-05-13T18:15:40.228Z,12.27
2018-05-13T18:18:06.874Z,10.65
2018-05-13T18:20:33.474Z,11.23
2018-05-13T18:22:59.875Z,10.05
2018-05-13T18:25:26.290Z,11.10
2018-05-13T18:27:52.753Z,10.88
2018-05-13T18:30:19.211Z,12.10
2018-05-13T18:32:45.750Z,12.40
2018-05-13T18:35:12.872Z,10.95
2018-05-13T18:37:40.070Z,11.05
2018-05-13T18:40:07.291Z,11.15
2018-05-13T18:42:33.751Z,13.00
2018-05-13T18:45:00.259Z,12.20
2018-05-13T18:47:26.875Z,12.10
2018-05-13T18:49:54.131Z,10.75
2018-05-13T18:52:22.662Z,13.23
2018-05-13T18:54:49.126Z,15.15
2018-05-13T18:57:15.748Z,15.82
2018-05-13T18:59:42.559Z,15.68
2018-05-13T19:02:09.239Z,16.05
2018-05-13T19:04:35.653Z,12.43
2018-05-13T19:07:02.184Z,12.25
2018-05-13T19:09:29.000Z,10.73
2018-05-13T19:11:55.727Z,10.70
2018-05-13T19:14:22.852Z,11.88
2018-05-13T19:16:50.069Z,10.60
2018-05-13T19:19:16.549Z,9.88
2018-05-13T19:21:42.970Z,11.05
2018-05-13T19:24:10.187Z,10.70
2018-05-13T19:26:36.651Z,9.88
2018-05-13T19:29:03.454Z,10.43
2018-05-13T19:31:30.162Z,17.52
2018-05-13T19:33:56.620Z,21.45
2018-05-13T19:36:23.167Z,18.60
2018-05-13T19:38:49.711Z,14.90
2018-05-13T19:41:16.370Z,17.83
2018-05-13T19:47:19.343Z,14.80
2018-05-13T19:49:46.165Z,15.20
2018-05-13T19:52:12.615Z,15.98
2018-05-13T19:54:39.021Z,14.02
2018-05-13T19:57:05.427Z,11.70
2018-05-13T19:59:31.758Z,12.57
2018-05-13T20:01:58.117Z,12.32
2018-05-13T20:04:24.443Z,12.30
2018-05-13T20:06:50.842Z,12.60
2018-05-13T20:09:18.012Z,12.20
2018-05-13T20:11:44.357Z,13.10
2018-05-13T20:14:10.839Z,13.10
2018-05-13T20:16:37.210Z,15.23
2018-05-13T20:19:03.643Z,13.65
2018-05-13T20:21:30.046Z,14.73
2018-05-13T20:23:57.115Z,15.30
2018-05-13T20:26:23.448Z,16.17
2018-05-13T20:28:49.788Z,15.15
2018-05-13T20:31:16.195Z,17.17
2018-05-13T20:33:42.575Z,17.00
2018-05-13T20:36:08.909Z,16.30
2018-05-13T20:38:35.266Z,16.30
2018-05-13T20:41:02.440Z,18.73
2018-05-13T20:43:28.858Z,17.20
2018-05-13T20:45:55.222Z,17.05
2018-05-13T20:48:21.906Z,18.30
2018-05-13T20:50:48.300Z,18.12
2018-05-13T20:53:14.660Z,18.23
2018-05-13T20:55:41.094Z,18.02
2018-05-13T20:58:07.455Z,17.80
2018-05-13T21:00:33.849Z,17.70
2018-05-13T21:03:00.211Z,18.52
2018-05-13T21:05:27.382Z,16.42
2018-05-13T21:07:53.731Z,15.85
2018-05-13T21:10:20.100Z,15.57
2018-05-13T21:12:46.478Z,15.82
2018-05-13T21:15:12.894Z,15.90
2018-05-13T21:17:39.318Z,15.20
2018-05-13T21:20:05.752Z,14.77
2018-05-13T21:22:32.097Z,15.70
2018-05-13T21:24:58.423Z,16.15
2018-05-13T21:27:24.782Z,17.05
2018-05-13T21:29:51.122Z,16.98
2018-05-13T21:32:18.215Z,18.58
2018-05-13T21:34:45.314Z,19.62
2018-05-13T21:37:11.677Z,21.92
2018-05-13T21:39:38.721Z,23.20
2018-05-13T21:42:05.869Z,21.55
2018-05-13T21:44:32.959Z,24.67
2018-05-13T21:46:59.376Z,26.37
2018-05-13T21:49:25.678Z,23.80
2018-05-13T21:51:52.794Z,23.80
2018-05-13T21:54:19.158Z,24.75
2018-05-13T21:56:46.298Z,22.92
2018-05-13T21:59:12.622Z,24.00
2018-05-13T22:01:38.964Z,23.70
2018-05-13T22:04:06.148Z,24.05
2018-05-13T22:06:32.458Z,25.12
2018-05-13T22:08:59.517Z,24.23
2018-05-13T22:11:25.828Z,23.30
2018-05-13T22:13:52.893Z,21.65
2018-05-13T22:16:19.665Z,22.40
2018-05-13T22:18:46.008Z,23.80
2018-05-13T22:21:12.356Z,23.42
2018-05-13T22:23:39.475Z,21.87
2018-05-13T22:26:05.774Z,23.95
2018-05-13T22:28:32.106Z,22.73
2018-05-13T22:30:58.453Z,24.17
2018-05-13T22:33:24.845Z,23.08
2018-05-13T22:35:51.898Z,20.65
2018-05-13T22:38:18.330Z,17.27
2018-05-13T22:40:44.677Z,18.25
2018-05-13T22:43:11.012Z,17.90
2018-05-13T22:45:37.462Z,16.42
2018-05-13T22:48:03.861Z,17.92
2018-05-13T22:50:30.200Z,18.58
2018-05-13T22:52:56.539Z,17.52
2018-05-13T22:55:23.307Z,17.30
2018-05-13T22:57:49.612Z,18.37
2018-05-13T23:00:16.005Z,19.67
2018-05-13T23:02:43.073Z,19.00
2018-05-13T23:05:09.398Z,19.02
2018-05-13T23:07:35.829Z,17.92
2018-05-13T23:10:02.252Z,23.23
2018-05-13T23:12:28.597Z,23.38
2018-05-13T23:14:54.930Z,23.30
2018-05-13T23:17:21.325Z,23.12
2018-05-13T23:19:48.398Z,21.12
2018-05-13T23:22:33.025Z,20.37
2018-05-13T23:24:59.345Z,20.70
2018-05-13T23:27:25.973Z,20.35
2018-05-13T23:29:52.349Z,21.12
2018-05-13T23:32:18.663Z,22.87
2018-05-13T23:34:45.762Z,24.70
2018-05-13T23:37:12.077Z,23.90
2018-05-13T23:39:38.419Z,21.40
2018-05-13T23:42:04.742Z,21.12
2018-05-13T23:44:31.065Z,25.65
2018-05-13T23:46:57.385Z,23.23
2018-05-13T23:49:23.706Z,22.02
2018-05-13T23:51:50.169Z,25.85
2018-05-13T23:54:16.502Z,24.58
2018-05-13T23:56:42.895Z,26.35
2018-05-13T23:59:09.198Z,24.75
